createdAt,value
2022-08-05T00:00:46.462Z,1.50
2022-08-05T00:03:18.117Z,1.47
2022-08-05T00:06:06.403Z,1.30
2022-08-05T00:08:36.191Z,2.30
2022-08-05T00:11:07.531Z,1.67
2022-08-05T00:13:53.176Z,1.43
2022-08-05T00:16:35.437Z,1.87
2022-08-05T00:19:05.537Z,2.03
2022-08-05T00:21:35.623Z,2.67
2022-08-05T00:24:10.436Z,1.70
2022-08-05T00:26:39.528Z,2.57
2022-08-05T00:29:18.659Z,1.87
2022-08-05T00:32:10.603Z,1.50
2022-08-05T00:34:55.705Z,3.13
2022-08-05T00:37:35.583Z,1.93
2022-08-05T00:40:17.930Z,1.50
2022-08-05T00:42:55.468Z,1.87
2022-08-05T00:45:28.407Z,1.73
2022-08-05T00:48:10.144Z,1.60
2022-08-05T00:50:39.138Z,1.50
2022-08-05T00:53:59.895Z,1.57
2022-08-05T00:55:58.557Z,3.80
2022-08-05T00:58:27.321Z,1.70
2022-08-05T01:00:56.229Z,1.90
2022-08-05T01:03:30.758Z,2.47
2022-08-05T01:06:02.601Z,2.03
2022-08-05T01:08:43.958Z,1.70
2022-08-05T01:11:22.535Z,3.40
2022-08-05T01:14:08.783Z,3.10
2022-08-05T01:16:50.367Z,2.67
2022-08-05T01:20:01.764Z,3.17
2022-08-05T01:22:48.586Z,4.60
2022-08-05T01:25:42.516Z,1.77
2022-08-05T01:28:37.315Z,2.87
2022-08-05T01:31:12.251Z,2.20
2022-08-05T01:33:49.339Z,2.27
2022-08-05T01:36:28.406Z,1.97
2022-08-05T01:39:01.221Z,2.53
2022-08-05T01:41:33.937Z,2.20
2022-08-05T01:44:09.988Z,2.47
2022-08-05T01:46:46.840Z,3.43
2022-08-05T01:49:22.940Z,2.07
2022-08-05T01:51:53.303Z,2.50
2022-08-05T01:54:25.589Z,2.90
2022-08-05T01:58:29.495Z,2.60
2022-08-05T01:59:47.939Z,2.93
2022-08-05T02:02:17.435Z,3.87
2022-08-05T02:04:49.495Z,2.80
2022-08-05T02:07:22.200Z,2.70
2022-08-05T02:09:51.262Z,2.90
2022-08-05T02:12:27.141Z,5.40
2022-08-05T02:15:04.655Z,2.73
2022-08-05T02:18:31.909Z,2.90
2022-08-05T02:20:48.761Z,3.73
2022-08-05T02:23:22.531Z,3.03
2022-08-05T02:25:53.485Z,2.70
2022-08-05T02:28:29.378Z,3.93
2022-08-05T02:31:04.115Z,3.23
2022-08-05T02:33:38.934Z,2.90
2022-08-05T02:36:13.727Z,3.43
2022-08-05T02:38:53.545Z,4.70
2022-08-05T02:41:28.821Z,4.13
2022-08-05T02:44:11.911Z,4.63
2022-08-05T02:46:59.720Z,2.97
2022-08-05T02:49:36.529Z,3.43
2022-08-05T02:52:09.506Z,5.63
2022-08-05T02:54:42.699Z,3.70
2022-08-05T02:58:20.519Z,3.37
2022-08-05T03:00:10.629Z,5.10
2022-08-05T03:02:42.946Z,5.33
2022-08-05T03:05:13.543Z,4.37
2022-08-05T03:08:00.457Z,4.07
2022-08-05T03:10:30.937Z,3.73
2022-08-05T03:15:26.174Z,3.77
2022-08-05T03:18:08.326Z,3.30
2022-08-05T03:20:37.721Z,3.83
2022-08-05T03:23:13.419Z,3.53
2022-08-05T03:26:04.779Z,3.57
2022-08-05T03:28:30.947Z,3.70
2022-08-05T03:31:00.750Z,3.73
2022-08-05T03:33:51.156Z,4.57
2022-08-05T03:36:28.006Z,5.80
2022-08-05T03:38:59.131Z,2.83
2022-08-05T03:41:33.236Z,4.13
2022-08-05T03:44:11.336Z,3.53
2022-08-05T03:46:40.228Z,4.07
2022-08-05T03:49:10.795Z,3.83
2022-08-05T03:52:39.167Z,3.73
2022-08-05T03:55:51.989Z,3.97
2022-08-05T03:57:42.425Z,3.37
2022-08-05T04:00:15.972Z,6.33
2022-08-05T04:02:58.753Z,4.00
2022-08-05T04:05:33.566Z,3.37
2022-08-05T04:08:05.488Z,3.40
2022-08-05T04:10:38.131Z,3.40
2022-08-05T04:13:08.616Z,6.00
2022-08-05T04:15:37.301Z,3.87
2022-08-05T04:18:09.461Z,4.03
2022-08-05T04:20:41.346Z,5.60
2022-08-05T04:23:12.247Z,4.90
2022-08-05T04:26:00.180Z,6.40
2022-08-05T04:28:31.649Z,6.13
2022-08-05T04:31:01.475Z,4.90
2022-08-05T04:33:54.829Z,3.00
2022-08-05T04:36:50.254Z,4.10
2022-08-05T04:39:08.058Z,4.07
2022-08-05T04:41:37.789Z,8.23
2022-08-05T04:44:09.385Z,3.60
2022-08-05T04:46:38.804Z,3.87
2022-08-05T04:49:12.168Z,4.63
2022-08-05T04:51:44.611Z,5.17
2022-08-05T04:54:14.865Z,6.20
2022-08-05T04:56:44.592Z,6.90
2022-08-05T04:59:21.770Z,3.63
2022-08-05T05:02:07.155Z,5.67
2022-08-05T05:04:43.888Z,4.70
2022-08-05T05:07:17.460Z,5.40
2022-08-05T05:09:45.799Z,3.13
2022-08-05T05:12:15.901Z,6.67
2022-08-05T05:14:50.912Z,5.03
2022-08-05T05:17:56.729Z,3.73
2022-08-05T05:20:33.840Z,5.37
2022-08-05T05:23:08.227Z,5.50
2022-08-05T05:25:47.857Z,6.03
2022-08-05T05:28:15.997Z,5.73
2022-08-05T05:30:44.146Z,6.90
2022-08-05T05:33:23.487Z,5.53
2022-08-05T05:35:51.807Z,4.83
2022-08-05T05:38:26.809Z,9.17
2022-08-05T05:40:56.266Z,6.57
2022-08-05T05:43:58.200Z,6.00
2022-08-05T05:46:19.257Z,5.90
2022-08-05T05:48:49.890Z,4.17
2022-08-05T05:51:50.544Z,3.57
2022-08-05T05:54:22.152Z,4.33
2022-08-05T05:57:13.704Z,5.23
2022-08-05T05:59:47.336Z,5.70
2022-08-05T06:02:17.187Z,5.07
2022-08-05T06:05:01.410Z,3.33
2022-08-05T06:07:41.774Z,3.37
2022-08-05T06:10:12.606Z,2.43
2022-08-05T06:12:42.353Z,2.60
2022-08-05T06:15:23.742Z,4.37
2022-08-05T06:17:54.721Z,3.03
2022-08-05T06:20:23.587Z,6.90
2022-08-05T06:22:51.605Z,4.10
2022-08-05T06:25:59.804Z,4.20
2022-08-05T06:28:21.239Z,3.47
2022-08-05T06:30:50.131Z,3.27
2022-08-05T06:33:19.061Z,4.30
2022-08-05T06:36:03.963Z,3.47
2022-08-05T06:38:36.805Z,2.30
2022-08-05T06:41:08.133Z,6.50
2022-08-05T06:43:58.072Z,4.33
2022-08-05T06:46:30.009Z,3.40
2022-08-05T06:49:00.822Z,3.97
2022-08-05T06:51:30.993Z,3.43
2022-08-05T06:54:00.119Z,3.17
2022-08-05T06:56:34.354Z,4.27
2022-08-05T06:59:03.183Z,3.83
2022-08-05T07:01:32.320Z,4.13
2022-08-05T07:04:02.371Z,3.17
2022-08-05T07:06:31.751Z,4.67
2022-08-05T07:09:03.834Z,5.50
2022-08-05T07:11:37.155Z,3.20
2022-08-05T07:14:29.729Z,3.17
2022-08-05T07:18:08.485Z,3.40
2022-08-05T07:22:42.682Z,5.17
2022-08-05T07:25:54.489Z,4.60
2022-08-05T07:28:05.337Z,3.57
2022-08-05T07:30:39.865Z,5.27
2022-08-05T07:33:15.730Z,4.23
2022-08-05T07:36:02.606Z,6.40
2022-08-05T07:38:42.602Z,4.83
2022-08-05T07:42:06.798Z,3.27
2022-08-05T07:44:04.149Z,5.57
2022-08-05T07:46:33.792Z,5.63
2022-08-05T07:49:05.864Z,5.57
2022-08-05T07:51:48.663Z,5.23
2022-08-05T07:54:34.091Z,5.80
2022-08-05T07:57:17.644Z,5.00
2022-08-05T08:00:01.866Z,6.57
2022-08-05T08:03:14.084Z,5.00
2022-08-05T08:05:26.375Z,4.20
2022-08-05T08:08:00.256Z,4.50
2022-08-05T08:10:28.884Z,5.87
2022-08-05T08:13:01.504Z,6.67
2022-08-05T08:16:33.252Z,7.10
2022-08-05T08:18:20.993Z,6.67
2022-08-05T08:21:02.179Z,6.23
2022-08-05T08:24:01.970Z,9.23
2022-08-05T08:26:29.674Z,8.57
2022-08-05T08:28:59.813Z,6.93
2022-08-05T08:31:48.236Z,8.03
2022-08-05T08:34:16.616Z,10.37
2022-08-05T08:36:54.665Z,6.00
2022-08-05T08:39:24.945Z,6.20
2022-08-05T08:41:58.650Z,5.33
2022-08-05T08:45:22.542Z,5.27
2022-08-05T08:48:06.618Z,7.03
2022-08-05T08:50:32.966Z,6.23
2022-08-05T08:53:12.364Z,7.27
2022-08-05T08:56:03.766Z,6.70
2022-08-05T08:58:43.005Z,6.10
2022-08-05T09:01:16.618Z,4.23
2022-08-05T09:03:48.360Z,7.33
2022-08-05T09:06:40.276Z,5.90
2022-08-05T09:09:09.346Z,4.63
2022-08-05T09:11:51.005Z,6.03
2022-08-05T09:14:57.029Z,5.87
2022-08-05T09:17:40.828Z,5.13
2022-08-05T09:20:05.544Z,4.50
2022-08-05T09:23:09.529Z,7.93
2022-08-05T09:26:03.068Z,5.67
2022-08-05T09:28:39.506Z,5.97
2022-08-05T09:31:22.230Z,4.50
2022-08-05T09:33:59.714Z,8.23
2022-08-05T09:36:54.096Z,5.30
2022-08-05T09:39:27.552Z,6.20
2022-08-05T09:42:07.947Z,6.60
2022-08-05T09:44:38.597Z,7.17
2022-08-05T09:47:15.432Z,6.93
2022-08-05T09:50:00.649Z,7.27
2022-08-05T09:52:34.397Z,7.60
2022-08-05T09:55:55.476Z,9.00
2022-08-05T09:57:54.689Z,6.73
2022-08-05T10:00:27.639Z,12.37
2022-08-05T10:02:58.052Z,11.10
2022-08-05T10:05:28.977Z,9.60
2022-08-05T10:08:35.880Z,10.20
2022-08-05T10:11:04.691Z,8.90
2022-08-05T10:13:43.978Z,10.97
2022-08-05T10:16:41.903Z,10.27
2022-08-05T10:19:23.791Z,11.17
2022-08-05T10:22:00.131Z,11.40
2022-08-05T10:24:33.375Z,9.77
2022-08-05T10:27:07.880Z,11.00
2022-08-05T10:30:41.365Z,10.10
2022-08-05T10:32:52.054Z,8.77
2022-08-05T10:35:14.383Z,9.93
2022-08-05T10:37:44.941Z,10.17
2022-08-05T10:40:27.923Z,9.30
2022-08-05T10:43:02.566Z,9.33
2022-08-05T10:45:40.030Z,8.10
2022-08-05T10:48:52.343Z,9.10
2022-08-05T10:51:29.057Z,8.77
2022-08-05T10:54:01.668Z,8.67
2022-08-05T10:57:03.548Z,9.77
2022-08-05T11:00:03.062Z,7.93
2022-08-05T11:02:34.593Z,6.93
2022-08-05T11:05:07.358Z,8.57
2022-08-05T11:08:02.439Z,7.80
2022-08-05T11:10:37.131Z,8.93
2022-08-05T11:13:09.366Z,9.00
2022-08-05T11:16:47.395Z,8.97
2022-08-05T11:20:10.665Z,9.17
2022-08-05T11:22:42.130Z,9.73
2022-08-05T11:26:04.762Z,8.07
2022-08-05T11:28:58.731Z,7.43
2022-08-05T11:31:56.930Z,7.80
2022-08-05T11:34:59.933Z,9.07
2022-08-05T11:38:29.106Z,6.50
2022-08-05T11:41:35.040Z,7.10
2022-08-05T11:44:08.099Z,6.60
2022-08-05T11:47:09.829Z,6.43
2022-08-05T11:49:27.130Z,6.70
2022-08-05T11:51:57.594Z,8.03
2022-08-05T11:54:32.925Z,6.27
2022-08-05T11:57:08.288Z,6.63
2022-08-05T11:59:58.708Z,7.63
2022-08-05T12:02:32.928Z,8.70
2022-08-05T12:05:07.327Z,6.77
2022-08-05T12:08:08.073Z,6.77
2022-08-05T12:10:38.660Z,13.00
2022-08-05T12:13:27.661Z,6.43
2022-08-05T12:16:15.637Z,6.80
2022-08-05T12:18:49.367Z,8.33
2022-08-05T12:21:24.130Z,11.77
2022-08-05T12:24:04.271Z,7.40
2022-08-05T12:26:34.277Z,7.60
2022-08-05T12:29:03.255Z,7.37
2022-08-05T12:31:46.305Z,7.57
2022-08-05T12:34:21.466Z,7.57
2022-08-05T12:37:10.700Z,9.67
2022-08-05T12:39:40.350Z,7.20
2022-08-05T12:42:15.261Z,7.23
2022-08-05T12:44:44.683Z,7.37
2022-08-05T12:47:25.530Z,5.73
2022-08-05T12:50:03.449Z,7.33
2022-08-05T12:52:59.247Z,6.50
2022-08-05T12:55:32.893Z,7.97
2022-08-05T12:58:52.741Z,7.47
2022-08-05T13:02:03.285Z,5.40
2022-08-05T13:03:45.408Z,5.77
2022-08-05T13:06:16.786Z,9.63
2022-08-05T13:09:08.771Z,9.47
2022-08-05T13:12:01.275Z,6.87
2022-08-05T13:14:36.847Z,5.57
2022-08-05T13:17:10.352Z,6.23
2022-08-05T13:19:52.268Z,6.60
2022-08-05T13:22:28.557Z,6.60
2022-08-05T13:25:05.203Z,4.90
2022-08-05T13:27:41.035Z,4.27
2022-08-05T13:30:34.658Z,3.90
2022-08-05T13:33:01.588Z,4.67
2022-08-05T13:35:47.531Z,4.53
2022-08-05T13:38:34.183Z,5.20
2022-08-05T13:41:05.936Z,3.50
2022-08-05T13:43:43.990Z,4.13
2022-08-05T13:46:14.884Z,5.47
2022-08-05T13:49:00.935Z,5.47
2022-08-05T13:51:40.078Z,7.03
2022-08-05T13:54:12.278Z,4.33
2022-08-05T13:56:45.048Z,7.70
2022-08-05T13:59:21.329Z,4.37
2022-08-05T14:01:58.313Z,4.40
2022-08-05T14:04:50.154Z,4.60
2022-08-05T14:07:26.204Z,7.20
2022-08-05T14:10:12.917Z,4.23
2022-08-05T14:12:48.606Z,5.27
2022-08-05T14:16:05.754Z,4.33
2022-08-05T14:18:06.521Z,7.27
2022-08-05T14:20:54.863Z,4.03
2022-08-05T14:23:26.434Z,4.30
2022-08-05T14:25:58.542Z,6.03
2022-08-05T14:28:28.006Z,3.47
2022-08-05T14:30:56.615Z,4.57
2022-08-05T14:33:24.761Z,4.83
2022-08-05T14:35:54.945Z,3.83
2022-08-05T14:38:31.883Z,5.47
2022-08-05T14:41:06.034Z,4.97
2022-08-05T14:43:57.540Z,3.63
2022-08-05T14:46:29.052Z,3.10
2022-08-05T14:49:06.282Z,2.97
2022-08-05T14:51:35.872Z,5.13
2022-08-05T14:54:29.905Z,2.97
2022-08-05T14:56:56.187Z,3.00
2022-08-05T14:59:24.164Z,6.13
2022-08-05T15:01:53.724Z,4.67
2022-08-05T15:04:24.519Z,3.47
2022-08-05T15:06:57.083Z,5.20
2022-08-05T15:09:52.561Z,5.77
2022-08-05T15:12:16.985Z,8.57
2022-08-05T15:14:49.861Z,3.60
2022-08-05T15:17:47.270Z,2.80
2022-08-05T15:20:18.687Z,4.33
2022-08-05T15:22:53.995Z,2.67
2022-08-05T15:25:41.378Z,3.07
2022-08-05T15:28:15.783Z,3.53
2022-08-05T15:30:52.879Z,3.70
2022-08-05T15:33:56.922Z,3.00
2022-08-05T15:36:17.862Z,2.93
2022-08-05T15:40:59.733Z,2.80
2022-08-05T15:41:56.156Z,3.13
2022-08-05T15:44:27.538Z,3.93
2022-08-05T15:46:55.973Z,3.03
2022-08-05T15:49:53.555Z,4.03
2022-08-05T15:52:29.571Z,3.07
2022-08-05T15:55:02.198Z,4.40
2022-08-05T15:57:33.110Z,2.97
2022-08-05T16:00:04.119Z,2.60
2022-08-05T16:02:32.526Z,2.47
2022-08-05T16:05:03.279Z,2.37
2022-08-05T16:07:34.465Z,2.37
2022-08-05T16:10:03.479Z,2.73
2022-08-05T16:12:33.109Z,4.17
2022-08-05T16:15:02.233Z,2.20
2022-08-05T16:17:32.304Z,2.70
2022-08-05T16:20:05.014Z,2.80
2022-08-05T16:22:35.906Z,2.43
2022-08-05T16:25:09.388Z,2.67
2022-08-05T16:28:00.925Z,2.50
2022-08-05T16:30:29.044Z,2.33
2022-08-05T16:33:00.523Z,4.10
2022-08-05T16:35:32.346Z,4.77
2022-08-05T16:38:16.768Z,2.03
2022-08-05T16:42:12.289Z,3.17
2022-08-05T16:43:57.555Z,3.07
2022-08-05T16:46:25.660Z,2.30
2022-08-05T16:48:53.629Z,3.20
2022-08-05T16:51:23.750Z,2.83
2022-08-05T16:54:06.074Z,2.87
2022-08-05T16:56:43.115Z,4.70
2022-08-05T16:59:15.655Z,2.53
2022-08-05T17:01:54.950Z,2.53
2022-08-05T17:04:26.500Z,2.50
2022-08-05T17:06:55.692Z,1.90
2022-08-05T17:09:28.460Z,1.63
2022-08-05T17:12:00.001Z,3.00
2022-08-05T17:14:37.022Z,2.53
2022-08-05T17:17:14.280Z,3.00
2022-08-05T17:19:45.594Z,1.73
2022-08-05T17:22:17.880Z,2.40
2022-08-05T17:24:57.691Z,2.13
2022-08-05T17:27:34.472Z,1.73
2022-08-05T17:30:12.100Z,2.57
2022-08-05T17:32:58.813Z,3.87
2022-08-05T17:35:32.655Z,3.77
2022-08-05T17:38:17.516Z,1.03
2022-08-05T17:40:45.711Z,1.00
2022-08-05T17:43:15.618Z,2.17
2022-08-05T17:45:45.792Z,2.83
2022-08-05T17:48:13.767Z,1.93
2022-08-05T17:50:44.036Z,1.77
2022-08-05T17:53:12.069Z,2.13
2022-08-05T17:55:40.321Z,0.90
2022-08-05T17:58:11.043Z,1.30
2022-08-05T18:00:39.926Z,1.40
2022-08-05T18:03:55.842Z,1.33
2022-08-05T18:06:12.215Z,1.10
2022-08-05T18:08:44.836Z,2.30
2022-08-05T18:11:24.652Z,1.87
2022-08-05T18:14:03.657Z,1.30
2022-08-05T18:16:35.484Z,0.87
2022-08-05T18:19:23.020Z,0.83
2022-08-05T18:22:09.725Z,2.77
2022-08-05T18:24:40.066Z,2.57
2022-08-05T18:27:18.197Z,2.00
2022-08-05T18:29:53.703Z,2.50
2022-08-05T18:32:27.804Z,5.10
2022-08-05T18:35:01.251Z,3.10
2022-08-05T18:37:34.581Z,2.40
2022-08-05T18:40:34.592Z,2.30
2022-08-05T18:42:57.985Z,1.10
2022-08-05T18:45:41.732Z,1.33
2022-08-05T18:48:17.502Z,1.23
2022-08-05T18:52:02.683Z,2.93
2022-08-05T18:54:06.890Z,3.70
2022-08-05T18:56:37.195Z,1.53
2022-08-05T18:59:41.892Z,1.37
2022-08-05T19:01:58.443Z,2.37
2022-08-05T19:04:27.475Z,0.87
2022-08-05T19:06:56.931Z,1.53
2022-08-05T19:09:25.096Z,5.00
2022-08-05T19:11:59.554Z,2.07
2022-08-05T19:14:59.313Z,1.17
2022-08-05T19:17:17.920Z,1.07
2022-08-05T19:19:48.667Z,1.83
2022-08-05T19:22:18.457Z,1.27
2022-08-05T19:25:00.761Z,2.20
2022-08-05T19:27:30.928Z,0.73
2022-08-05T19:29:59.378Z,2.03
2022-08-05T19:32:27.748Z,1.17
2022-08-05T19:34:56.334Z,1.10
2022-08-05T19:37:34.829Z,1.67
2022-08-05T19:40:17.429Z,1.77
2022-08-05T19:43:04.502Z,1.60
2022-08-05T19:45:37.022Z,1.90
2022-08-05T19:48:06.213Z,2.00
2022-08-05T19:50:35.182Z,2.97
2022-08-05T19:53:09.690Z,2.27
2022-08-05T19:56:15.738Z,1.63
2022-08-05T19:58:29.211Z,1.53
2022-08-05T20:00:58.006Z,1.57
2022-08-05T20:03:27.463Z,2.57
2022-08-05T20:06:15.678Z,1.43
2022-08-05T20:08:47.632Z,1.67
2022-08-05T20:11:18.055Z,0.90
2022-08-05T20:13:58.525Z,2.67
2022-08-05T20:16:41.274Z,3.17
2022-08-05T20:19:11.558Z,1.23
2022-08-05T20:21:44.675Z,2.43
2022-08-05T20:24:14.646Z,1.27
2022-08-05T20:26:44.314Z,1.77
2022-08-05T20:29:26.638Z,1.97
2022-08-05T20:31:58.227Z,1.67
2022-08-05T20:34:27.782Z,1.40
2022-08-05T20:36:55.866Z,1.37
2022-08-05T20:39:25.813Z,2.23
2022-08-05T20:42:03.782Z,1.37
2022-08-05T20:44:37.849Z,1.47
2022-08-05T20:47:07.750Z,1.50
2022-08-05T20:49:47.713Z,1.30
2022-08-05T20:52:19.316Z,1.80
2022-08-05T20:54:59.077Z,1.70
2022-08-05T20:57:42.084Z,1.20
2022-08-05T21:00:41.232Z,1.03
2022-08-05T21:03:07.202Z,1.87
2022-08-05T21:05:53.606Z,1.67
2022-08-05T21:08:33.160Z,1.33
2022-08-05T21:11:12.016Z,2.53
2022-08-05T21:13:47.745Z,1.80
2022-08-05T21:16:29.692Z,3.80
2022-08-05T21:19:00.392Z,2.20
2022-08-05T21:21:39.786Z,2.00
2022-08-05T21:24:15.525Z,1.00
2022-08-05T21:27:00.476Z,2.13
2022-08-05T21:29:31.352Z,2.20
2022-08-05T21:32:00.593Z,1.23
2022-08-05T21:34:28.656Z,3.63
2022-08-05T21:36:59.836Z,2.30
2022-08-05T21:39:28.183Z,1.07
2022-08-05T21:42:02.315Z,2.33
2022-08-05T21:44:30.991Z,2.20
2022-08-05T21:47:00.015Z,1.43
2022-08-05T21:49:48.205Z,1.70
2022-08-05T21:52:27.749Z,0.83
2022-08-05T21:54:56.585Z,1.10
2022-08-05T21:57:31.572Z,1.00
2022-08-05T22:00:06.207Z,1.33
2022-08-05T22:02:35.294Z,1.87
2022-08-05T22:05:04.558Z,1.20
2022-08-05T22:07:40.053Z,1.77
2022-08-05T22:10:26.586Z,2.60
2022-08-05T22:13:08.575Z,2.07
2022-08-05T22:16:00.382Z,1.53
2022-08-05T22:18:27.064Z,2.43
2022-08-05T22:20:55.895Z,1.60
2022-08-05T22:24:02.160Z,4.07
2022-08-05T22:26:55.703Z,0.97
2022-08-05T22:29:32.876Z,2.10
2022-08-05T22:32:03.151Z,1.27
2022-08-05T22:34:32.106Z,3.27
2022-08-05T22:37:00.637Z,1.30
2022-08-05T22:39:33.836Z,1.70
2022-08-05T22:42:10.916Z,2.27
2022-08-05T22:44:42.495Z,2.53
2022-08-05T22:47:28.972Z,1.73
2022-08-05T22:50:19.081Z,3.00
2022-08-05T22:52:47.224Z,2.40
2022-08-05T22:55:18.943Z,2.90
2022-08-05T22:57:49.811Z,2.97
2022-08-05T23:00:21.985Z,1.40
2022-08-05T23:02:50.974Z,1.37
2022-08-05T23:05:21.874Z,2.33
2022-08-05T23:07:50.702Z,2.20
2022-08-05T23:10:19.552Z,1.83
2022-08-05T23:12:51.152Z,2.07
2022-08-05T23:15:38.231Z,3.87
2022-08-05T23:18:16.001Z,1.37
2022-08-05T23:20:44.155Z,2.33
2022-08-05T23:23:12.314Z,1.60
2022-08-05T23:25:52.568Z,1.87
2022-08-05T23:28:23.013Z,2.03
2022-08-05T23:30:54.772Z,3.73
2022-08-05T23:33:26.346Z,4.23
2022-08-05T23:36:13.817Z,2.17
2022-08-05T23:38:42.815Z,3.37
2022-08-05T23:41:11.878Z,3.97
2022-08-05T23:44:05.954Z,4.83
2022-08-05T23:46:46.323Z,3.97
2022-08-05T23:49:17.043Z,1.33
2022-08-05T23:52:07.876Z,2.10
2022-08-05T23:54:38.384Z,5.70
2022-08-05T23:57:08.450Z,1.60
